sensor_id;sensor_type;location;lat;lon;timestamp;P1;durP1;ratioP1;P2;durP2;ratioP2
52978;SDS011;63430;53.186;6.598;2024-02-21T00:00:31;17.33;;;4.70;;
52978;SDS011;63430;53.186;6.598;2024-02-21T00:02:34;16.42;;;5.13;;
52978;SDS011;63430;53.186;6.598;2024-02-21T00:04:38;15.35;;;4.80;;
52978;SDS011;63430;53.186;6.598;2024-02-21T00:06:41;16.48;;;4.85;;
52978;SDS011;63430;53.186;6.598;2024-02-21T00:08:45;16.85;;;4.50;;
52978;SDS011;63430;53.186;6.598;2024-02-21T00:10:48;15.23;;;4.55;;
52978;SDS011;63430;53.186;6.598;2024-02-21T00:12:53;16.08;;;4.55;;
52978;SDS011;63430;53.186;6.598;2024-02-21T00:14:56;16.60;;;4.88;;
52978;SDS011;63430;53.186;6.598;2024-02-21T00:17:03;20.17;;;5.15;;
52978;SDS011;63430;53.186;6.598;2024-02-21T00:19:06;18.20;;;5.47;;
52978;SDS011;63430;53.186;6.598;2024-02-21T00:21:10;23.58;;;4.60;;
52978;SDS011;63430;53.186;6.598;2024-02-21T00:23:20;16.92;;;4.70;;
52978;SDS011;63430;53.186;6.598;2024-02-21T00:25:25;14.13;;;4.28;;
52978;SDS011;63430;53.186;6.598;2024-02-21T00:27:28;15.15;;;4.78;;
52978;SDS011;63430;53.186;6.598;2024-02-21T00:29:38;16.55;;;4.25;;
52978;SDS011;63430;53.186;6.598;2024-02-21T00:32:16;15.90;;;4.78;;
52978;SDS011;63430;53.186;6.598;2024-02-21T00:34:53;17.35;;;5.28;;
52978;SDS011;63430;53.186;6.598;2024-02-21T00:37:23;17.15;;;4.57;;
52978;SDS011;63430;53.186;6.598;2024-02-21T00:39:26;17.65;;;4.68;;
52978;SDS011;63430;53.186;6.598;2024-02-21T00:41:30;20.42;;;4.65;;
52978;SDS011;63430;53.186;6.598;2024-02-21T00:43:34;16.75;;;4.75;;
52978;SDS011;63430;53.186;6.598;2024-02-21T00:45:39;18.55;;;4.85;;
52978;SDS011;63430;53.186;6.598;2024-02-21T00:47:45;22.75;;;5.45;;
52978;SDS011;63430;53.186;6.598;2024-02-21T00:49:48;20.35;;;5.70;;
52978;SDS011;63430;53.186;6.598;2024-02-21T00:51:53;21.80;;;5.78;;
52978;SDS011;63430;53.186;6.598;2024-02-21T00:53:56;20.92;;;5.85;;
52978;SDS011;63430;53.186;6.598;2024-02-21T00:55:59;15.48;;;5.30;;
52978;SDS011;63430;53.186;6.598;2024-02-21T00:58:03;16.85;;;5.95;;
52978;SDS011;63430;53.186;6.598;2024-02-21T01:00:07;25.13;;;5.78;;
52978;SDS011;63430;53.186;6.598;2024-02-21T01:02:10;21.85;;;7.10;;
52978;SDS011;63430;53.186;6.598;2024-02-21T01:04:15;22.90;;;6.18;;
52978;SDS011;63430;53.186;6.598;2024-02-21T01:06:18;21.23;;;5.88;;
52978;SDS011;63430;53.186;6.598;2024-02-21T01:08:21;18.52;;;6.05;;
52978;SDS011;63430;53.186;6.598;2024-02-21T01:10:23;21.00;;;5.90;;
52978;SDS011;63430;53.186;6.598;2024-02-21T01:12:26;20.45;;;6.32;;
52978;SDS011;63430;53.186;6.598;2024-02-21T01:14:28;24.33;;;6.15;;
52978;SDS011;63430;53.186;6.598;2024-02-21T01:16:31;24.48;;;6.78;;
52978;SDS011;63430;53.186;6.598;2024-02-21T01:18:33;20.52;;;6.30;;
52978;SDS011;63430;53.186;6.598;2024-02-21T01:20:41;15.43;;;5.85;;
52978;SDS011;63430;53.186;6.598;2024-02-21T01:22:44;20.92;;;6.57;;
52978;SDS011;63430;53.186;6.598;2024-02-21T01:24:46;19.77;;;6.70;;
52978;SDS011;63430;53.186;6.598;2024-02-21T01:26:49;22.42;;;7.55;;
52978;SDS011;63430;53.186;6.598;2024-02-21T01:28:51;24.20;;;7.63;;
52978;SDS011;63430;53.186;6.598;2024-02-21T01:30:54;18.88;;;6.90;;
52978;SDS011;63430;53.186;6.598;2024-02-21T01:32:57;24.65;;;7.97;;
52978;SDS011;63430;53.186;6.598;2024-02-21T01:35:00;19.02;;;7.00;;
52978;SDS011;63430;53.186;6.598;2024-02-21T01:37:05;23.98;;;7.72;;
52978;SDS011;63430;53.186;6.598;2024-02-21T01:39:09;23.10;;;7.93;;
52978;SDS011;63430;53.186;6.598;2024-02-21T01:41:13;20.83;;;7.93;;
52978;SDS011;63430;53.186;6.598;2024-02-21T01:43:16;27.25;;;9.10;;
52978;SDS011;63430;53.186;6.598;2024-02-21T01:45:20;26.90;;;8.48;;
52978;SDS011;63430;53.186;6.598;2024-02-21T01:47:23;23.13;;;8.77;;
52978;SDS011;63430;53.186;6.598;2024-02-21T01:49:25;20.10;;;8.43;;
52978;SDS011;63430;53.186;6.598;2024-02-21T01:51:28;20.25;;;8.23;;
52978;SDS011;63430;53.186;6.598;2024-02-21T01:53:36;19.75;;;7.60;;
52978;SDS011;63430;53.186;6.598;2024-02-21T01:55:39;22.05;;;8.60;;
52978;SDS011;63430;53.186;6.598;2024-02-21T01:57:45;20.30;;;8.00;;
52978;SDS011;63430;53.186;6.598;2024-02-21T01:59:48;20.08;;;7.78;;
52978;SDS011;63430;53.186;6.598;2024-02-21T02:01:52;17.25;;;7.80;;
52978;SDS011;63430;53.186;6.598;2024-02-21T02:03:58;17.17;;;6.97;;
52978;SDS011;63430;53.186;6.598;2024-02-21T02:06:04;14.07;;;6.53;;
52978;SDS011;63430;53.186;6.598;2024-02-21T02:08:08;16.85;;;7.45;;
52978;SDS011;63430;53.186;6.598;2024-02-21T02:10:14;17.27;;;7.47;;
52978;SDS011;63430;53.186;6.598;2024-02-21T02:12:17;17.88;;;7.25;;
52978;SDS011;63430;53.186;6.598;2024-02-21T02:14:20;15.82;;;7.00;;
52978;SDS011;63430;53.186;6.598;2024-02-21T02:16:24;19.83;;;7.72;;
52978;SDS011;63430;53.186;6.598;2024-02-21T02:18:27;12.52;;;6.30;;
52978;SDS011;63430;53.186;6.598;2024-02-21T02:20:31;16.40;;;6.32;;
52978;SDS011;63430;53.186;6.598;2024-02-21T02:22:34;19.40;;;6.57;;
52978;SDS011;63430;53.186;6.598;2024-02-21T02:24:42;15.20;;;6.75;;
52978;SDS011;63430;53.186;6.598;2024-02-21T02:26:46;16.20;;;7.72;;
52978;SDS011;63430;53.186;6.598;2024-02-21T02:28:49;18.00;;;6.82;;
52978;SDS011;63430;53.186;6.598;2024-02-21T02:30:52;15.05;;;6.00;;
52978;SDS011;63430;53.186;6.598;2024-02-21T02:32:56;18.35;;;6.50;;
52978;SDS011;63430;53.186;6.598;2024-02-21T02:34:59;14.85;;;5.70;;
52978;SDS011;63430;53.186;6.598;2024-02-21T02:37:03;12.32;;;5.40;;
52978;SDS011;63430;53.186;6.598;2024-02-21T02:39:06;19.30;;;6.70;;
52978;SDS011;63430;53.186;6.598;2024-02-21T02:41:13;17.83;;;5.63;;
52978;SDS011;63430;53.186;6.598;2024-02-21T02:43:16;16.73;;;6.32;;
52978;SDS011;63430;53.186;6.598;2024-02-21T02:45:20;14.32;;;5.93;;
52978;SDS011;63430;53.186;6.598;2024-02-21T02:47:25;16.20;;;6.13;;
52978;SDS011;63430;53.186;6.598;2024-02-21T02:49:29;19.70;;;6.35;;
52978;SDS011;63430;53.186;6.598;2024-02-21T02:51:32;18.88;;;5.55;;
52978;SDS011;63430;53.186;6.598;2024-02-21T02:53:35;18.60;;;6.45;;
52978;SDS011;63430;53.186;6.598;2024-02-21T02:55:39;24.10;;;7.10;;
52978;SDS011;63430;53.186;6.598;2024-02-21T02:57:45;21.58;;;6.40;;
52978;SDS011;63430;53.186;6.598;2024-02-21T02:59:50;19.17;;;6.55;;
52978;SDS011;63430;53.186;6.598;2024-02-21T03:01:53;22.10;;;6.25;;
52978;SDS011;63430;53.186;6.598;2024-02-21T03:03:55;17.85;;;7.15;;
52978;SDS011;63430;53.186;6.598;2024-02-21T03:05:58;22.77;;;7.50;;
52978;SDS011;63430;53.186;6.598;2024-02-21T03:08:01;25.00;;;7.03;;
52978;SDS011;63430;53.186;6.598;2024-02-21T03:10:03;23.20;;;7.55;;
52978;SDS011;63430;53.186;6.598;2024-02-21T03:12:07;23.23;;;6.82;;
52978;SDS011;63430;53.186;6.598;2024-02-21T03:14:12;24.38;;;7.55;;
52978;SDS011;63430;53.186;6.598;2024-02-21T03:16:16;24.42;;;7.57;;
52978;SDS011;63430;53.186;6.598;2024-02-21T03:18:19;23.35;;;6.97;;
52978;SDS011;63430;53.186;6.598;2024-02-21T03:20:22;21.60;;;7.07;;
52978;SDS011;63430;53.186;6.598;2024-02-21T03:22:25;21.40;;;6.72;;
52978;SDS011;63430;53.186;6.598;2024-02-21T03:24:28;29.85;;;7.45;;
52978;SDS011;63430;53.186;6.598;2024-02-21T03:26:33;24.58;;;7.50;;
52978;SDS011;63430;53.186;6.598;2024-02-21T03:28:35;24.80;;;8.02;;
52978;SDS011;63430;53.186;6.598;2024-02-21T03:30:41;33.42;;;8.45;;
52978;SDS011;63430;53.186;6.598;2024-02-21T03:32:43;20.95;;;7.38;;
52978;SDS011;63430;53.186;6.598;2024-02-21T03:34:46;27.35;;;8.50;;
52978;SDS011;63430;53.186;6.598;2024-02-21T03:36:48;27.45;;;8.05;;
52978;SDS011;63430;53.186;6.598;2024-02-21T03:38:51;25.20;;;7.88;;
52978;SDS011;63430;53.186;6.598;2024-02-21T03:40:53;26.00;;;8.32;;
52978;SDS011;63430;53.186;6.598;2024-02-21T03:42:56;28.02;;;8.23;;
52978;SDS011;63430;53.186;6.598;2024-02-21T03:44:58;28.20;;;8.18;;
52978;SDS011;63430;53.186;6.598;2024-02-21T03:47:04;24.92;;;8.15;;
52978;SDS011;63430;53.186;6.598;2024-02-21T03:49:06;36.85;;;8.68;;
52978;SDS011;63430;53.186;6.598;2024-02-21T03:51:09;28.92;;;7.97;;
52978;SDS011;63430;53.186;6.598;2024-02-21T03:53:11;29.80;;;8.40;;
52978;SDS011;63430;53.186;6.598;2024-02-21T03:55:14;28.85;;;8.40;;
52978;SDS011;63430;53.186;6.598;2024-02-21T03:57:16;22.50;;;7.43;;
52978;SDS011;63430;53.186;6.598;2024-02-21T03:59:19;26.63;;;8.45;;
52978;SDS011;63430;53.186;6.598;2024-02-21T04:01:23;23.98;;;7.10;;
52978;SDS011;63430;53.186;6.598;2024-02-21T04:03:30;25.40;;;8.73;;
52978;SDS011;63430;53.186;6.598;2024-02-21T04:05:33;30.27;;;8.45;;
52978;SDS011;63430;53.186;6.598;2024-02-21T04:07:37;21.17;;;7.88;;
52978;SDS011;63430;53.186;6.598;2024-02-21T04:09:40;28.60;;;9.30;;
52978;SDS011;63430;53.186;6.598;2024-02-21T04:11:44;32.80;;;9.57;;
52978;SDS011;63430;53.186;6.598;2024-02-21T04:13:47;31.33;;;8.40;;
52978;SDS011;63430;53.186;6.598;2024-02-21T04:15:52;32.35;;;8.82;;
52978;SDS011;63430;53.186;6.598;2024-02-21T04:17:56;32.72;;;8.00;;
52978;SDS011;63430;53.186;6.598;2024-02-21T04:20:04;32.42;;;9.18;;
52978;SDS011;63430;53.186;6.598;2024-02-21T04:22:09;28.08;;;8.00;;
52978;SDS011;63430;53.186;6.598;2024-02-21T04:24:12;24.50;;;8.93;;
52978;SDS011;63430;53.186;6.598;2024-02-21T04:26:15;25.80;;;8.32;;
52978;SDS011;63430;53.186;6.598;2024-02-21T04:28:19;23.58;;;8.07;;
52978;SDS011;63430;53.186;6.598;2024-02-21T04:30:22;31.90;;;9.30;;
52978;SDS011;63430;53.186;6.598;2024-02-21T04:32:25;27.83;;;8.73;;
52978;SDS011;63430;53.186;6.598;2024-02-21T04:34:30;24.48;;;8.90;;
52978;SDS011;63430;53.186;6.598;2024-02-21T04:36:36;27.33;;;8.90;;
52978;SDS011;63430;53.186;6.598;2024-02-21T04:38:40;31.23;;;8.93;;
52978;SDS011;63430;53.186;6.598;2024-02-21T04:40:44;27.70;;;9.15;;
52978;SDS011;63430;53.186;6.598;2024-02-21T04:42:48;27.85;;;8.85;;
52978;SDS011;63430;53.186;6.598;2024-02-21T04:44:51;31.23;;;9.38;;
52978;SDS011;63430;53.186;6.598;2024-02-21T04:46:55;24.35;;;8.48;;
52978;SDS011;63430;53.186;6.598;2024-02-21T04:48:58;31.58;;;8.43;;
52978;SDS011;63430;53.186;6.598;2024-02-21T04:51:00;23.88;;;7.85;;
52978;SDS011;63430;53.186;6.598;2024-02-21T04:53:06;23.90;;;7.88;;
52978;SDS011;63430;53.186;6.598;2024-02-21T04:55:08;32.88;;;9.85;;
52978;SDS011;63430;53.186;6.598;2024-02-21T04:57:11;28.30;;;8.57;;
52978;SDS011;63430;53.186;6.598;2024-02-21T04:59:18;26.38;;;8.20;;
52978;SDS011;63430;53.186;6.598;2024-02-21T05:01:21;26.98;;;9.02;;
52978;SDS011;63430;53.186;6.598;2024-02-21T05:03:24;27.00;;;8.15;;
52978;SDS011;63430;53.186;6.598;2024-02-21T05:05:26;35.03;;;8.90;;
52978;SDS011;63430;53.186;6.598;2024-02-21T05:07:49;31.00;;;8.60;;
52978;SDS011;63430;53.186;6.598;2024-02-21T05:09:54;25.10;;;8.32;;
52978;SDS011;63430;53.186;6.598;2024-02-21T05:11:57;26.25;;;7.70;;
52978;SDS011;63430;53.186;6.598;2024-02-21T05:14:02;28.38;;;8.02;;
52978;SDS011;63430;53.186;6.598;2024-02-21T05:16:05;32.75;;;9.55;;
52978;SDS011;63430;53.186;6.598;2024-02-21T05:18:08;23.02;;;7.57;;
52978;SDS011;63430;53.186;6.598;2024-02-21T05:20:11;26.33;;;8.30;;
52978;SDS011;63430;53.186;6.598;2024-02-21T05:22:14;27.95;;;8.13;;
52978;SDS011;63430;53.186;6.598;2024-02-21T05:24:16;25.30;;;8.77;;
52978;SDS011;63430;53.186;6.598;2024-02-21T05:26:25;28.30;;;8.15;;
52978;SDS011;63430;53.186;6.598;2024-02-21T05:28:29;23.83;;;8.02;;
52978;SDS011;63430;53.186;6.598;2024-02-21T05:30:32;22.63;;;7.82;;
52978;SDS011;63430;53.186;6.598;2024-02-21T05:32:34;27.13;;;7.68;;
52978;SDS011;63430;53.186;6.598;2024-02-21T05:34:37;25.08;;;7.93;;
52978;SDS011;63430;53.186;6.598;2024-02-21T05:36:39;29.08;;;9.65;;
52978;SDS011;63430;53.186;6.598;2024-02-21T05:38:42;25.63;;;7.32;;
52978;SDS011;63430;53.186;6.598;2024-02-21T05:40:45;22.02;;;7.85;;
52978;SDS011;63430;53.186;6.598;2024-02-21T05:42:50;28.00;;;8.23;;
52978;SDS011;63430;53.186;6.598;2024-02-21T05:44:53;26.70;;;8.18;;
52978;SDS011;63430;53.186;6.598;2024-02-21T05:46:56;30.67;;;7.63;;
52978;SDS011;63430;53.186;6.598;2024-02-21T05:49:00;22.30;;;6.78;;
52978;SDS011;63430;53.186;6.598;2024-02-21T05:51:04;29.90;;;8.63;;
52978;SDS011;63430;53.186;6.598;2024-02-21T05:53:07;32.80;;;8.80;;
52978;SDS011;63430;53.186;6.598;2024-02-21T05:55:11;25.83;;;8.10;;
52978;SDS011;63430;53.186;6.598;2024-02-21T05:57:15;25.75;;;8.32;;
52978;SDS011;63430;53.186;6.598;2024-02-21T05:59:22;23.27;;;8.32;;
52978;SDS011;63430;53.186;6.598;2024-02-21T06:01:27;24.52;;;7.63;;
52978;SDS011;63430;53.186;6.598;2024-02-21T06:03:30;31.88;;;8.85;;
52978;SDS011;63430;53.186;6.598;2024-02-21T06:05:36;30.30;;;8.10;;
52978;SDS011;63430;53.186;6.598;2024-02-21T06:07:40;27.00;;;8.25;;
52978;SDS011;63430;53.186;6.598;2024-02-21T06:09:57;30.58;;;8.57;;
52978;SDS011;63430;53.186;6.598;2024-02-21T06:12:01;25.17;;;7.57;;
52978;SDS011;63430;53.186;6.598;2024-02-21T06:14:05;26.75;;;7.90;;
52978;SDS011;63430;53.186;6.598;2024-02-21T06:16:11;26.65;;;8.98;;
52978;SDS011;63430;53.186;6.598;2024-02-21T06:18:14;26.10;;;8.00;;
52978;SDS011;63430;53.186;6.598;2024-02-21T06:20:18;25.98;;;8.20;;
52978;SDS011;63430;53.186;6.598;2024-02-21T06:22:21;26.70;;;8.27;;
52978;SDS011;63430;53.186;6.598;2024-02-21T06:24:26;29.98;;;9.07;;
52978;SDS011;63430;53.186;6.598;2024-02-21T06:26:29;28.52;;;8.20;;
52978;SDS011;63430;53.186;6.598;2024-02-21T06:28:32;24.33;;;8.65;;
52978;SDS011;63430;53.186;6.598;2024-02-21T06:30:36;24.90;;;8.02;;
52978;SDS011;63430;53.186;6.598;2024-02-21T06:32:43;25.30;;;10.02;;
52978;SDS011;63430;53.186;6.598;2024-02-21T06:34:46;30.75;;;8.52;;
52978;SDS011;63430;53.186;6.598;2024-02-21T06:36:50;31.58;;;8.68;;
52978;SDS011;63430;53.186;6.598;2024-02-21T06:38:54;31.60;;;10.02;;
52978;SDS011;63430;53.186;6.598;2024-02-21T06:40:57;30.48;;;9.45;;
52978;SDS011;63430;53.186;6.598;2024-02-21T06:43:03;30.45;;;9.02;;
52978;SDS011;63430;53.186;6.598;2024-02-21T06:45:06;30.60;;;10.23;;
52978;SDS011;63430;53.186;6.598;2024-02-21T06:47:10;28.90;;;9.55;;
52978;SDS011;63430;53.186;6.598;2024-02-21T06:49:16;27.58;;;8.88;;
52978;SDS011;63430;53.186;6.598;2024-02-21T06:51:20;26.02;;;9.55;;
52978;SDS011;63430;53.186;6.598;2024-02-21T06:53:23;22.77;;;9.38;;
52978;SDS011;63430;53.186;6.598;2024-02-21T06:55:26;22.88;;;9.18;;
52978;SDS011;63430;53.186;6.598;2024-02-21T06:57:30;32.97;;;10.68;;
52978;SDS011;63430;53.186;6.598;2024-02-21T06:59:33;38.92;;;12.02;;
52978;SDS011;63430;53.186;6.598;2024-02-21T07:01:36;30.95;;;11.25;;
52978;SDS011;63430;53.186;6.598;2024-02-21T07:03:40;31.63;;;10.93;;
52978;SDS011;63430;53.186;6.598;2024-02-21T07:05:46;38.08;;;11.70;;
52978;SDS011;63430;53.186;6.598;2024-02-21T07:07:50;32.25;;;12.70;;
52978;SDS011;63430;53.186;6.598;2024-02-21T07:09:53;38.17;;;14.25;;
52978;SDS011;63430;53.186;6.598;2024-02-21T07:11:58;48.30;;;15.73;;
52978;SDS011;63430;53.186;6.598;2024-02-21T07:14:01;43.50;;;15.98;;
52978;SDS011;63430;53.186;6.598;2024-02-21T07:16:06;46.15;;;16.67;;
52978;SDS011;63430;53.186;6.598;2024-02-21T07:18:09;43.50;;;17.30;;
52978;SDS011;63430;53.186;6.598;2024-02-21T07:20:13;47.65;;;19.35;;
52978;SDS011;63430;53.186;6.598;2024-02-21T07:22:19;60.95;;;20.20;;
52978;SDS011;63430;53.186;6.598;2024-02-21T07:24:23;54.40;;;19.70;;
52978;SDS011;63430;53.186;6.598;2024-02-21T07:26:26;53.28;;;20.65;;
52978;SDS011;63430;53.186;6.598;2024-02-21T07:28:29;58.47;;;19.58;;
52978;SDS011;63430;53.186;6.598;2024-02-21T07:30:33;57.38;;;19.48;;
52978;SDS011;63430;53.186;6.598;2024-02-21T07:32:36;58.05;;;19.35;;
52978;SDS011;63430;53.186;6.598;2024-02-21T07:34:40;52.55;;;17.25;;
52978;SDS011;63430;53.186;6.598;2024-02-21T07:36:43;62.17;;;18.05;;
52978;SDS011;63430;53.186;6.598;2024-02-21T07:38:51;47.22;;;15.82;;
52978;SDS011;63430;53.186;6.598;2024-02-21T07:40:55;54.33;;;14.52;;
52978;SDS011;63430;53.186;6.598;2024-02-21T07:42:58;52.95;;;15.38;;
52978;SDS011;63430;53.186;6.598;2024-02-21T07:45:01;49.28;;;13.38;;
52978;SDS011;63430;53.186;6.598;2024-02-21T07:47:05;41.97;;;13.38;;
52978;SDS011;63430;53.186;6.598;2024-02-21T07:49:10;44.92;;;11.45;;
52978;SDS011;63430;53.186;6.598;2024-02-21T07:51:12;35.75;;;10.30;;
52978;SDS011;63430;53.186;6.598;2024-02-21T07:53:15;37.40;;;9.63;;
52978;SDS011;63430;53.186;6.598;2024-02-21T07:55:20;35.90;;;10.18;;
52978;SDS011;63430;53.186;6.598;2024-02-21T07:57:22;30.35;;;9.18;;
52978;SDS011;63430;53.186;6.598;2024-02-21T07:59:25;32.53;;;8.80;;
52978;SDS011;63430;53.186;6.598;2024-02-21T08:01:30;29.65;;;8.88;;
52978;SDS011;63430;53.186;6.598;2024-02-21T08:03:32;27.15;;;8.57;;
52978;SDS011;63430;53.186;6.598;2024-02-21T08:05:35;32.50;;;8.38;;
52978;SDS011;63430;53.186;6.598;2024-02-21T08:07:38;25.98;;;7.93;;
52978;SDS011;63430;53.186;6.598;2024-02-21T08:09:40;23.23;;;8.82;;
52978;SDS011;63430;53.186;6.598;2024-02-21T08:11:45;29.25;;;8.15;;
52978;SDS011;63430;53.186;6.598;2024-02-21T08:13:48;22.85;;;7.72;;
52978;SDS011;63430;53.186;6.598;2024-02-21T08:15:50;18.38;;;7.10;;
52978;SDS011;63430;53.186;6.598;2024-02-21T08:17:53;19.77;;;7.28;;
52978;SDS011;63430;53.186;6.598;2024-02-21T08:20:00;28.80;;;8.30;;
52978;SDS011;63430;53.186;6.598;2024-02-21T08:22:03;20.98;;;7.00;;
52978;SDS011;63430;53.186;6.598;2024-02-21T08:24:06;20.70;;;6.80;;
52978;SDS011;63430;53.186;6.598;2024-02-21T08:26:08;23.65;;;6.88;;
52978;SDS011;63430;53.186;6.598;2024-02-21T08:28:14;19.25;;;7.18;;
52978;SDS011;63430;53.186;6.598;2024-02-21T08:30:16;22.90;;;7.60;;
52978;SDS011;63430;53.186;6.598;2024-02-21T08:32:20;21.05;;;7.30;;
52978;SDS011;63430;53.186;6.598;2024-02-21T08:34:22;22.08;;;7.90;;
52978;SDS011;63430;53.186;6.598;2024-02-21T08:36:25;24.33;;;7.15;;
52978;SDS011;63430;53.186;6.598;2024-02-21T08:38:27;21.83;;;7.63;;
52978;SDS011;63430;53.186;6.598;2024-02-21T08:40:30;23.85;;;7.75;;
52978;SDS011;63430;53.186;6.598;2024-02-21T08:42:33;20.10;;;6.72;;
52978;SDS011;63430;53.186;6.598;2024-02-21T08:44:39;19.25;;;7.10;;
52978;SDS011;63430;53.186;6.598;2024-02-21T08:46:44;19.85;;;7.90;;
52978;SDS011;63430;53.186;6.598;2024-02-21T08:48:49;19.38;;;7.63;;
52978;SDS011;63430;53.186;6.598;2024-02-21T08:50:53;22.17;;;8.48;;
52978;SDS011;63430;53.186;6.598;2024-02-21T08:52:57;23.10;;;8.25;;
52978;SDS011;63430;53.186;6.598;2024-02-21T08:55:00;25.95;;;8.18;;
52978;SDS011;63430;53.186;6.598;2024-02-21T08:57:04;25.80;;;9.00;;
52978;SDS011;63430;53.186;6.598;2024-02-21T08:59:07;27.65;;;9.70;;
52978;SDS011;63430;53.186;6.598;2024-02-21T09:01:13;21.70;;;9.48;;
52978;SDS011;63430;53.186;6.598;2024-02-21T09:03:17;23.40;;;9.55;;
52978;SDS011;63430;53.186;6.598;2024-02-21T09:05:22;23.20;;;11.25;;
52978;SDS011;63430;53.186;6.598;2024-02-21T09:07:27;20.02;;;11.75;;
52978;SDS011;63430;53.186;6.598;2024-02-21T09:09:30;22.80;;;11.73;;
52978;SDS011;63430;53.186;6.598;2024-02-21T09:11:34;25.17;;;13.35;;
52978;SDS011;63430;53.186;6.598;2024-02-21T09:13:37;24.13;;;13.20;;
52978;SDS011;63430;53.186;6.598;2024-02-21T09:15:40;27.75;;;14.02;;
52978;SDS011;63430;53.186;6.598;2024-02-21T09:17:45;30.58;;;14.25;;
52978;SDS011;63430;53.186;6.598;2024-02-21T09:19:48;32.80;;;15.38;;
52978;SDS011;63430;53.186;6.598;2024-02-21T09:21:50;31.67;;;15.27;;
52978;SDS011;63430;53.186;6.598;2024-02-21T09:23:53;30.42;;;16.45;;
52978;SDS011;63430;53.186;6.598;2024-02-21T09:26:00;21.77;;;14.68;;
52978;SDS011;63430;53.186;6.598;2024-02-21T09:28:05;30.48;;;16.38;;
52978;SDS011;63430;53.186;6.598;2024-02-21T09:30:08;26.00;;;16.63;;
52978;SDS011;63430;53.186;6.598;2024-02-21T09:32:11;28.80;;;16.23;;
52978;SDS011;63430;53.186;6.598;2024-02-21T09:34:17;30.23;;;18.25;;
52978;SDS011;63430;53.186;6.598;2024-02-21T09:36:19;28.88;;;16.50;;
52978;SDS011;63430;53.186;6.598;2024-02-21T09:38:23;27.65;;;16.33;;
52978;SDS011;63430;53.186;6.598;2024-02-21T09:40:25;25.38;;;16.80;;
52978;SDS011;63430;53.186;6.598;2024-02-21T09:42:30;26.67;;;16.05;;
52978;SDS011;63430;53.186;6.598;2024-02-21T09:44:39;25.65;;;15.60;;
52978;SDS011;63430;53.186;6.598;2024-02-21T09:46:43;28.42;;;17.35;;
52978;SDS011;63430;53.186;6.598;2024-02-21T09:48:58;29.77;;;17.63;;
52978;SDS011;63430;53.186;6.598;2024-02-21T09:51:12;26.95;;;16.60;;
52978;SDS011;63430;53.186;6.598;2024-02-21T09:53:17;29.80;;;17.10;;
52978;SDS011;63430;53.186;6.598;2024-02-21T09:55:24;28.60;;;17.25;;
52978;SDS011;63430;53.186;6.598;2024-02-21T09:57:29;29.20;;;16.92;;
52978;SDS011;63430;53.186;6.598;2024-02-21T09:59:32;25.27;;;16.50;;
52978;SDS011;63430;53.186;6.598;2024-02-21T10:01:35;23.40;;;16.80;;
52978;SDS011;63430;53.186;6.598;2024-02-21T10:03:38;22.88;;;15.93;;
52978;SDS011;63430;53.186;6.598;2024-02-21T10:05:46;25.33;;;16.27;;
52978;SDS011;63430;53.186;6.598;2024-02-21T10:10:01;22.45;;;16.98;;
52978;SDS011;63430;53.186;6.598;2024-02-21T10:12:08;25.40;;;17.48;;
52978;SDS011;63430;53.186;6.598;2024-02-21T10:14:13;30.15;;;17.05;;
52978;SDS011;63430;53.186;6.598;2024-02-21T10:16:18;23.77;;;18.20;;
52978;SDS011;63430;53.186;6.598;2024-02-21T10:18:21;29.13;;;18.00;;
52978;SDS011;63430;53.186;6.598;2024-02-21T10:20:26;30.55;;;18.90;;
52978;SDS011;63430;53.186;6.598;2024-02-21T10:22:30;27.65;;;19.63;;
52978;SDS011;63430;53.186;6.598;2024-02-21T10:24:40;28.05;;;18.95;;
52978;SDS011;63430;53.186;6.598;2024-02-21T10:26:45;27.00;;;18.48;;
52978;SDS011;63430;53.186;6.598;2024-02-21T10:28:48;26.30;;;18.35;;
52978;SDS011;63430;53.186;6.598;2024-02-21T10:30:54;28.17;;;20.30;;
52978;SDS011;63430;53.186;6.598;2024-02-21T10:32:58;26.92;;;19.70;;
52978;SDS011;63430;53.186;6.598;2024-02-21T10:35:02;28.58;;;20.95;;
52978;SDS011;63430;53.186;6.598;2024-02-21T10:37:12;28.45;;;20.17;;
52978;SDS011;63430;53.186;6.598;2024-02-21T10:39:15;31.23;;;20.83;;
52978;SDS011;63430;53.186;6.598;2024-02-21T10:41:22;30.15;;;20.48;;
52978;SDS011;63430;53.186;6.598;2024-02-21T10:43:26;32.70;;;20.92;;
52978;SDS011;63430;53.186;6.598;2024-02-21T10:45:31;25.13;;;20.00;;
52978;SDS011;63430;53.186;6.598;2024-02-21T10:47:36;30.63;;;21.10;;
52978;SDS011;63430;53.186;6.598;2024-02-21T10:49:42;29.35;;;21.75;;
52978;SDS011;63430;53.186;6.598;2024-02-21T10:51:51;30.00;;;20.55;;
52978;SDS011;63430;53.186;6.598;2024-02-21T10:53:57;31.73;;;20.70;;
52978;SDS011;63430;53.186;6.598;2024-02-21T10:56:11;29.52;;;21.17;;
52978;SDS011;63430;53.186;6.598;2024-02-21T10:58:29;29.25;;;20.45;;
52978;SDS011;63430;53.186;6.598;2024-02-21T11:00:35;24.85;;;19.38;;
52978;SDS011;63430;53.186;6.598;2024-02-21T11:02:39;29.13;;;20.55;;
52978;SDS011;63430;53.186;6.598;2024-02-21T11:04:43;27.60;;;20.27;;
52978;SDS011;63430;53.186;6.598;2024-02-21T11:06:48;30.15;;;19.73;;
52978;SDS011;63430;53.186;6.598;2024-02-21T11:09:01;28.10;;;18.63;;
52978;SDS011;63430;53.186;6.598;2024-02-21T11:11:07;28.35;;;20.35;;
52978;SDS011;63430;53.186;6.598;2024-02-21T11:13:32;30.40;;;20.20;;
52978;SDS011;63430;53.186;6.598;2024-02-21T11:15:38;24.65;;;16.60;;
52978;SDS011;63430;53.186;6.598;2024-02-21T11:17:41;27.38;;;19.13;;
52978;SDS011;63430;53.186;6.598;2024-02-21T11:20:10;22.58;;;18.73;;
52978;SDS011;63430;53.186;6.598;2024-02-21T11:22:15;23.58;;;18.02;;
52978;SDS011;63430;53.186;6.598;2024-02-21T11:24:26;24.52;;;17.58;;
52978;SDS011;63430;53.186;6.598;2024-02-21T11:26:33;27.70;;;18.55;;
52978;SDS011;63430;53.186;6.598;2024-02-21T11:28:42;25.83;;;17.67;;
52978;SDS011;63430;53.186;6.598;2024-02-21T11:30:47;24.60;;;17.95;;
52978;SDS011;63430;53.186;6.598;2024-02-21T11:32:58;29.27;;;17.83;;
52978;SDS011;63430;53.186;6.598;2024-02-21T11:35:03;25.38;;;17.83;;
52978;SDS011;63430;53.186;6.598;2024-02-21T11:37:13;26.98;;;18.13;;
52978;SDS011;63430;53.186;6.598;2024-02-21T11:39:20;25.77;;;17.38;;
52978;SDS011;63430;53.186;6.598;2024-02-21T11:41:25;21.17;;;16.08;;
52978;SDS011;63430;53.186;6.598;2024-02-21T11:43:28;21.73;;;15.20;;
52978;SDS011;63430;53.186;6.598;2024-02-21T11:45:34;21.42;;;15.38;;
52978;SDS011;63430;53.186;6.598;2024-02-21T11:47:38;23.80;;;16.10;;
52978;SDS011;63430;53.186;6.598;2024-02-21T11:49:44;21.15;;;14.80;;
52978;SDS011;63430;53.186;6.598;2024-02-21T11:51:49;21.98;;;14.93;;
52978;SDS011;63430;53.186;6.598;2024-02-21T11:54:01;19.30;;;14.05;;
52978;SDS011;63430;53.186;6.598;2024-02-21T11:56:05;19.73;;;15.00;;
52978;SDS011;63430;53.186;6.598;2024-02-21T11:58:09;20.58;;;13.40;;
52978;SDS011;63430;53.186;6.598;2024-02-21T12:00:14;16.42;;;13.18;;
52978;SDS011;63430;53.186;6.598;2024-02-21T12:02:21;20.40;;;14.05;;
52978;SDS011;63430;53.186;6.598;2024-02-21T12:04:25;17.00;;;13.35;;
52978;SDS011;63430;53.186;6.598;2024-02-21T12:06:29;19.08;;;13.10;;
52978;SDS011;63430;53.186;6.598;2024-02-21T12:08:40;17.15;;;12.68;;
52978;SDS011;63430;53.186;6.598;2024-02-21T12:10:45;17.63;;;12.38;;
52978;SDS011;63430;53.186;6.598;2024-02-21T12:13:04;22.70;;;12.38;;
52978;SDS011;63430;53.186;6.598;2024-02-21T12:15:08;18.70;;;12.57;;
52978;SDS011;63430;53.186;6.598;2024-02-21T12:17:12;18.33;;;12.25;;
52978;SDS011;63430;53.186;6.598;2024-02-21T12:19:19;15.65;;;11.93;;